sensor_id;sensor_type;location;lat;lon;timestamp;pressure;altitude;pressure_sealevel;temperature;humidity
45078;BME280;60508;42.622;25.416;2023-02-11T00:00:56;98473.69;;;-1.96;46.71
45078;BME280;60508;42.622;25.416;2023-02-11T00:03:22;98478.84;;;-2.06;47.02
45078;BME280;60508;42.622;25.416;2023-02-11T00:05:58;98476.69;;;-2.23;47.33
45078;BME280;60508;42.622;25.416;2023-02-11T00:08:24;98481.59;;;-2.30;48.02
45078;BME280;60508;42.622;25.416;2023-02-11T00:10:52;98469.53;;;-2.32;48.15
45078;BME280;60508;42.622;25.416;2023-02-11T00:13:18;98468.22;;;-2.38;48.17
45078;BME280;60508;42.622;25.416;2023-02-11T00:15:44;98476.56;;;-2.44;48.75
45078;BME280;60508;42.622;25.416;2023-02-11T00:18:10;98466.78;;;-2.65;49.21
45078;BME280;60508;42.622;25.416;2023-02-11T00:20:40;98480.75;;;-2.76;49.03
45078;BME280;60508;42.622;25.416;2023-02-11T00:23:06;98473.09;;;-3.25;50.31
45078;BME280;60508;42.622;25.416;2023-02-11T00:25:32;98473.56;;;-3.20;49.71
45078;BME280;60508;42.622;25.416;2023-02-11T00:27:58;98465.97;;;-3.01;50.70
45078;BME280;60508;42.622;25.416;2023-02-11T00:30:24;98469.97;;;-2.84;50.36
45078;BME280;60508;42.622;25.416;2023-02-11T00:32:50;98469.75;;;-2.69;49.32
45078;BME280;60508;42.622;25.416;2023-02-11T00:35:16;98474.03;;;-2.68;49.76
45078;BME280;60508;42.622;25.416;2023-02-11T00:37:42;98474.81;;;-2.55;49.19
45078;BME280;60508;42.622;25.416;2023-02-11T00:40:10;98473.22;;;-2.58;48.93
45078;BME280;60508;42.622;25.416;2023-02-11T00:42:36;98473.94;;;-2.44;49.19
45078;BME280;60508;42.622;25.416;2023-02-11T00:45:02;98470.84;;;-2.27;47.97
45078;BME280;60508;42.622;25.416;2023-02-11T00:47:29;98464.50;;;-2.35;48.82
45078;BME280;60508;42.622;25.416;2023-02-11T00:49:55;98471.19;;;-2.31;48.54
45078;BME280;60508;42.622;25.416;2023-02-11T00:52:20;98468.78;;;-2.12;47.96
45078;BME280;60508;42.622;25.416;2023-02-11T00:54:47;98458.88;;;-2.08;47.64
45078;BME280;60508;42.622;25.416;2023-02-11T00:57:13;98472.38;;;-2.02;47.21
45078;BME280;60508;42.622;25.416;2023-02-11T00:59:38;98458.25;;;-2.12;47.53
45078;BME280;60508;42.622;25.416;2023-02-11T01:02:05;98461.13;;;-2.26;47.81
45078;BME280;60508;42.622;25.416;2023-02-11T01:04:31;98458.50;;;-2.26;47.43
45078;BME280;60508;42.622;25.416;2023-02-11T01:06:57;98463.06;;;-2.28;48.14
45078;BME280;60508;42.622;25.416;2023-02-11T01:09:24;98463.06;;;-2.28;48.38
45078;BME280;60508;42.622;25.416;2023-02-11T01:11:50;98458.88;;;-2.19;48.75
45078;BME280;60508;42.622;25.416;2023-02-11T01:14:16;98457.91;;;-2.18;48.45
45078;BME280;60508;42.622;25.416;2023-02-11T01:16:43;98445.34;;;-2.26;48.61
45078;BME280;60508;42.622;25.416;2023-02-11T01:19:08;98448.94;;;-2.27;48.17
45078;BME280;60508;42.622;25.416;2023-02-11T01:21:35;98440.94;;;-2.26;48.65
45078;BME280;60508;42.622;25.416;2023-02-11T01:24:01;98443.09;;;-2.31;48.66
45078;BME280;60508;42.622;25.416;2023-02-11T01:26:27;98442.13;;;-2.30;48.12
45078;BME280;60508;42.622;25.416;2023-02-11T01:28:52;98439.72;;;-2.67;49.87
45078;BME280;60508;42.622;25.416;2023-02-11T01:31:19;98442.25;;;-2.54;49.66
45078;BME280;60508;42.622;25.416;2023-02-11T01:33:45;98440.19;;;-2.50;49.94
45078;BME280;60508;42.622;25.416;2023-02-11T01:36:11;98435.91;;;-2.63;49.15
45078;BME280;60508;42.622;25.416;2023-02-11T01:38:37;98424.78;;;-2.21;48.01
45078;BME280;60508;42.622;25.416;2023-02-11T01:41:09;98431.22;;;-2.25;48.00
45078;BME280;60508;42.622;25.416;2023-02-11T01:43:45;98434.56;;;-2.34;48.17
45078;BME280;60508;42.622;25.416;2023-02-11T01:49:16;98422.28;;;-2.79;48.84
45078;BME280;60508;42.622;25.416;2023-02-11T01:52:03;98429.53;;;-2.94;49.48
45078;BME280;60508;42.622;25.416;2023-02-11T01:54:34;98435.88;;;-2.97;49.35
45078;BME280;60508;42.622;25.416;2023-02-11T01:57:20;98425.00;;;-3.03;50.74
45078;BME280;60508;42.622;25.416;2023-02-11T02:03:10;98426.53;;;-2.89;50.46
45078;BME280;60508;42.622;25.416;2023-02-11T02:08:52;98431.81;;;-2.67;49.10
45078;BME280;60508;42.622;25.416;2023-02-11T02:11:21;98430.88;;;-2.54;49.53
45078;BME280;60508;42.622;25.416;2023-02-11T02:13:47;98428.03;;;-2.63;49.69
45078;BME280;60508;42.622;25.416;2023-02-11T02:16:15;98417.97;;;-2.69;49.77
45078;BME280;60508;42.622;25.416;2023-02-11T02:19:00;98428.97;;;-2.64;50.42
45078;BME280;60508;42.622;25.416;2023-02-11T02:27:28;98434.44;;;-2.89;50.63
45078;BME280;60508;42.622;25.416;2023-02-11T02:41:16;98426.41;;;-2.99;49.11
45078;BME280;60508;42.622;25.416;2023-02-11T02:43:47;98423.41;;;-3.17;49.53
45078;BME280;60508;42.622;25.416;2023-02-11T02:46:18;98419.69;;;-3.26;49.11
45078;BME280;60508;42.622;25.416;2023-02-11T02:48:46;98425.41;;;-3.32;49.21
45078;BME280;60508;42.622;25.416;2023-02-11T03:02:51;98427.38;;;-3.47;50.05
45078;BME280;60508;42.622;25.416;2023-02-11T03:08:48;98435.19;;;-3.34;50.22
45078;BME280;60508;42.622;25.416;2023-02-11T03:11:06;98424.72;;;-3.23;49.24
45078;BME280;60508;42.622;25.416;2023-02-11T03:13:35;98424.16;;;-3.39;50.08
45078;BME280;60508;42.622;25.416;2023-02-11T03:16:12;98428.22;;;-3.46;50.02
45078;BME280;60508;42.622;25.416;2023-02-11T03:18:41;98430.81;;;-3.58;50.48
45078;BME280;60508;42.622;25.416;2023-02-11T03:21:10;98417.09;;;-3.50;49.98
45078;BME280;60508;42.622;25.416;2023-02-11T03:23:46;98428.72;;;-3.65;51.33
45078;BME280;60508;42.622;25.416;2023-02-11T03:26:25;98427.69;;;-3.63;50.98
45078;BME280;60508;42.622;25.416;2023-02-11T03:32:03;98422.19;;;-3.60;50.93
45078;BME280;60508;42.622;25.416;2023-02-11T03:34:43;98428.00;;;-3.43;51.14
45078;BME280;60508;42.622;25.416;2023-02-11T03:37:18;98416.06;;;-3.36;49.93
45078;BME280;60508;42.622;25.416;2023-02-11T03:39:51;98403.59;;;-3.57;49.83
45078;BME280;60508;42.622;25.416;2023-02-11T03:42:22;98416.78;;;-3.70;50.10
45078;BME280;60508;42.622;25.416;2023-02-11T03:44:56;98419.63;;;-3.73;50.77
45078;BME280;60508;42.622;25.416;2023-02-11T03:47:26;98421.28;;;-3.72;51.58
45078;BME280;60508;42.622;25.416;2023-02-11T03:49:56;98405.88;;;-4.00;50.71
45078;BME280;60508;42.622;25.416;2023-02-11T03:52:24;98410.41;;;-4.03;51.26
45078;BME280;60508;42.622;25.416;2023-02-11T03:54:54;98401.25;;;-3.97;50.85
45078;BME280;60508;42.622;25.416;2023-02-11T03:57:22;98411.56;;;-4.31;51.45
45078;BME280;60508;42.622;25.416;2023-02-11T03:59:53;98408.53;;;-4.37;53.25
45078;BME280;60508;42.622;25.416;2023-02-11T04:02:27;98402.16;;;-4.46;53.20
45078;BME280;60508;42.622;25.416;2023-02-11T04:04:54;98402.63;;;-4.28;53.21
45078;BME280;60508;42.622;25.416;2023-02-11T04:07:20;98397.69;;;-4.33;52.31
45078;BME280;60508;42.622;25.416;2023-02-11T04:09:46;98408.63;;;-4.26;52.28
45078;BME280;60508;42.622;25.416;2023-02-11T04:12:12;98400.97;;;-4.29;53.12
45078;BME280;60508;42.622;25.416;2023-02-11T04:14:38;98403.59;;;-4.29;53.38
45078;BME280;60508;42.622;25.416;2023-02-11T04:17:04;98410.25;;;-4.62;53.94
45078;BME280;60508;42.622;25.416;2023-02-11T04:19:30;98408.94;;;-4.93;55.24
45078;BME280;60508;42.622;25.416;2023-02-11T04:21:56;98413.34;;;-4.81;54.66
45078;BME280;60508;42.622;25.416;2023-02-11T04:24:22;98406.09;;;-4.78;54.90
45078;BME280;60508;42.622;25.416;2023-02-11T04:26:48;98405.66;;;-4.71;54.70
45078;BME280;60508;42.622;25.416;2023-02-11T04:29:14;98407.84;;;-4.65;54.35
45078;BME280;60508;42.622;25.416;2023-02-11T04:31:40;98400.28;;;-4.57;54.01
45078;BME280;60508;42.622;25.416;2023-02-11T04:34:06;98397.53;;;-4.55;54.13
45078;BME280;60508;42.622;25.416;2023-02-11T04:36:32;98402.97;;;-4.46;53.59
45078;BME280;60508;42.622;25.416;2023-02-11T04:38:59;98391.66;;;-4.46;53.25
45078;BME280;60508;42.622;25.416;2023-02-11T04:41:24;98393.53;;;-4.35;54.02
45078;BME280;60508;42.622;25.416;2023-02-11T04:43:50;98388.78;;;-4.30;53.69
45078;BME280;60508;42.622;25.416;2023-02-11T04:46:16;98383.31;;;-4.27;53.68
45078;BME280;60508;42.622;25.416;2023-02-11T04:48:42;98395.72;;;-4.29;53.40
45078;BME280;60508;42.622;25.416;2023-02-11T04:51:08;98380.63;;;-4.38;53.76
45078;BME280;60508;42.622;25.416;2023-02-11T04:53:34;98383.84;;;-4.35;52.97
45078;BME280;60508;42.622;25.416;2023-02-11T04:56:00;98380.69;;;-4.27;52.94
45078;BME280;60508;42.622;25.416;2023-02-11T04:58:26;98379.28;;;-4.20;51.81
45078;BME280;60508;42.622;25.416;2023-02-11T05:00:51;98382.94;;;-4.47;52.47
45078;BME280;60508;42.622;25.416;2023-02-11T05:03:17;98377.41;;;-4.55;53.36
45078;BME280;60508;42.622;25.416;2023-02-11T05:05:43;98376.84;;;-4.84;53.50
45078;BME280;60508;42.622;25.416;2023-02-11T05:08:09;98386.06;;;-5.04;56.00
45078;BME280;60508;42.622;25.416;2023-02-11T05:10:36;98380.78;;;-4.66;55.49
45078;BME280;60508;42.622;25.416;2023-02-11T05:13:02;98373.50;;;-4.49;54.62
45078;BME280;60508;42.622;25.416;2023-02-11T05:15:28;98380.22;;;-4.45;54.38
45078;BME280;60508;42.622;25.416;2023-02-11T05:17:54;98369.84;;;-4.47;53.67
45078;BME280;60508;42.622;25.416;2023-02-11T05:20:20;98367.44;;;-4.50;53.85
45078;BME280;60508;42.622;25.416;2023-02-11T05:22:46;98374.09;;;-4.46;53.62
45078;BME280;60508;42.622;25.416;2023-02-11T05:25:12;98376.72;;;-4.46;53.22
45078;BME280;60508;42.622;25.416;2023-02-11T05:27:38;98376.78;;;-4.59;53.28
45078;BME280;60508;42.622;25.416;2023-02-11T05:30:05;98379.25;;;-4.81;53.76
45078;BME280;60508;42.622;25.416;2023-02-11T05:32:31;98381.66;;;-4.91;54.56
45078;BME280;60508;42.622;25.416;2023-02-11T05:34:56;98379.03;;;-4.91;54.84
45078;BME280;60508;42.622;25.416;2023-02-11T05:37:22;98375.06;;;-4.97;55.23
45078;BME280;60508;42.622;25.416;2023-02-11T05:39:48;98377.88;;;-4.87;54.69
45078;BME280;60508;42.622;25.416;2023-02-11T05:42:14;98386.25;;;-4.69;54.02
45078;BME280;60508;42.622;25.416;2023-02-11T05:44:40;98376.53;;;-4.43;60.44
45078;BME280;60508;42.622;25.416;2023-02-11T05:47:06;98386.28;;;-4.08;65.39
45078;BME280;60508;42.622;25.416;2023-02-11T05:49:34;98378.41;;;-3.83;62.05
45078;BME280;60508;42.622;25.416;2023-02-11T05:52:00;98384.78;;;-3.63;58.31
45078;BME280;60508;42.622;25.416;2023-02-11T05:54:26;98379.97;;;-3.45;54.41
45078;BME280;60508;42.622;25.416;2023-02-11T05:56:52;98384.94;;;-3.54;52.37
45078;BME280;60508;42.622;25.416;2023-02-11T05:59:18;98386.31;;;-3.72;52.13
45078;BME280;60508;42.622;25.416;2023-02-11T06:01:44;98398.94;;;-3.53;51.63
45078;BME280;60508;42.622;25.416;2023-02-11T06:04:10;98384.00;;;-3.53;51.11
45078;BME280;60508;42.622;25.416;2023-02-11T06:06:36;98389.88;;;-3.38;50.21
45078;BME280;60508;42.622;25.416;2023-02-11T06:09:02;98387.63;;;-3.31;50.08
45078;BME280;60508;42.622;25.416;2023-02-11T06:11:28;98379.28;;;-3.25;49.43
45078;BME280;60508;42.622;25.416;2023-02-11T06:13:55;98365.78;;;-3.20;49.18
45078;BME280;60508;42.622;25.416;2023-02-11T06:16:20;98376.91;;;-2.94;48.53
45078;BME280;60508;42.622;25.416;2023-02-11T06:18:47;98394.50;;;-2.72;48.40
45078;BME280;60508;42.622;25.416;2023-02-11T06:21:12;98394.28;;;-2.46;47.14
45078;BME280;60508;42.622;25.416;2023-02-11T06:23:39;98384.06;;;-2.28;47.45
45078;BME280;60508;42.622;25.416;2023-02-11T06:26:06;98387.44;;;-1.94;46.90
45078;BME280;60508;42.622;25.416;2023-02-11T06:28:33;98379.75;;;-1.74;46.09
45078;BME280;60508;42.622;25.416;2023-02-11T06:31:05;98381.34;;;-1.62;45.37
45078;BME280;60508;42.622;25.416;2023-02-11T06:33:32;98383.03;;;-1.61;46.03
45078;BME280;60508;42.622;25.416;2023-02-11T06:35:58;98385.16;;;-1.55;46.87
45078;BME280;60508;42.622;25.416;2023-02-11T06:38:24;98382.19;;;-1.61;46.79
45078;BME280;60508;42.622;25.416;2023-02-11T06:40:50;98387.31;;;-1.27;46.02
45078;BME280;60508;42.622;25.416;2023-02-11T06:43:16;98389.88;;;-1.16;45.30
45078;BME280;60508;42.622;25.416;2023-02-11T06:45:42;98378.88;;;-0.90;44.40
45078;BME280;60508;42.622;25.416;2023-02-11T06:48:08;98383.81;;;-0.76;43.89
45078;BME280;60508;42.622;25.416;2023-02-11T06:50:34;98383.94;;;-0.78;44.00
45078;BME280;60508;42.622;25.416;2023-02-11T06:53:00;98377.91;;;-0.59;43.43
45078;BME280;60508;42.622;25.416;2023-02-11T06:55:26;98382.44;;;-0.40;42.88
45078;BME280;60508;42.622;25.416;2023-02-11T06:57:52;98386.63;;;-0.37;42.68
45078;BME280;60508;42.622;25.416;2023-02-11T07:00:19;98379.13;;;-0.32;42.47
45078;BME280;60508;42.622;25.416;2023-02-11T07:02:45;98380.81;;;-0.21;42.27
45078;BME280;60508;42.622;25.416;2023-02-11T07:05:11;98382.94;;;-0.05;41.57
45078;BME280;60508;42.622;25.416;2023-02-11T07:07:37;98386.59;;;0.23;41.28
45078;BME280;60508;42.622;25.416;2023-02-11T07:10:03;98370.59;;;0.34;41.37
45078;BME280;60508;42.622;25.416;2023-02-11T07:12:30;98376.97;;;0.42;41.07
45078;BME280;60508;42.622;25.416;2023-02-11T07:14:56;98374.91;;;0.45;40.37
45078;BME280;60508;42.622;25.416;2023-02-11T07:17:22;98383.94;;;0.43;40.98
45078;BME280;60508;42.622;25.416;2023-02-11T07:19:48;98373.09;;;0.26;41.09
45078;BME280;60508;42.622;25.416;2023-02-11T07:22:14;98374.88;;;0.35;40.39
45078;BME280;60508;42.622;25.416;2023-02-11T07:24:40;98370.72;;;0.33;41.00
45078;BME280;60508;42.622;25.416;2023-02-11T07:27:06;98373.66;;;0.30;40.49
45078;BME280;60508;42.622;25.416;2023-02-11T07:29:32;98374.47;;;0.40;41.02
45078;BME280;60508;42.622;25.416;2023-02-11T07:31:58;98368.78;;;0.35;41.50
45078;BME280;60508;42.622;25.416;2023-02-11T07:34:24;98366.41;;;0.42;41.91
45078;BME280;60508;42.622;25.416;2023-02-11T07:36:50;98369.59;;;0.65;41.49
45078;BME280;60508;42.622;25.416;2023-02-11T07:39:15;98374.28;;;0.81;40.46
45078;BME280;60508;42.622;25.416;2023-02-11T07:41:42;98377.13;;;0.79;40.26
45078;BME280;60508;42.622;25.416;2023-02-11T07:44:09;98380.03;;;0.86;40.08
45078;BME280;60508;42.622;25.416;2023-02-11T07:46:35;98370.34;;;1.04;39.32
45078;BME280;60508;42.622;25.416;2023-02-11T07:49:01;98373.50;;;1.18;39.63
45078;BME280;60508;42.622;25.416;2023-02-11T07:51:29;98377.75;;;1.38;38.06
45078;BME280;60508;42.622;25.416;2023-02-11T07:53:57;98369.81;;;1.38;38.29
45078;BME280;60508;42.622;25.416;2023-02-11T07:56:24;98370.81;;;1.37;37.71
45078;BME280;60508;42.622;25.416;2023-02-11T07:58:49;98366.63;;;1.62;37.39
45078;BME280;60508;42.622;25.416;2023-02-11T08:01:18;98366.53;;;1.82;37.63
45078;BME280;60508;42.622;25.416;2023-02-11T08:03:44;98365.78;;;1.90;37.20
45078;BME280;60508;42.622;25.416;2023-02-11T08:06:12;98344.06;;;2.04;36.77
45078;BME280;60508;42.622;25.416;2023-02-11T08:08:39;98353.09;;;2.29;36.44
45078;BME280;60508;42.622;25.416;2023-02-11T08:11:17;98361.50;;;2.61;36.03
45078;BME280;60508;42.622;25.416;2023-02-11T08:13:44;98348.28;;;2.95;36.22
45078;BME280;60508;42.622;25.416;2023-02-11T08:18:44;98357.41;;;3.19;34.77
45078;BME280;60508;42.622;25.416;2023-02-11T08:21:10;98351.66;;;3.32;34.60
45078;BME280;60508;42.622;25.416;2023-02-11T08:23:37;98350.50;;;3.34;34.19
45078;BME280;60508;42.622;25.416;2023-02-11T08:26:05;98350.16;;;3.29;34.17
45078;BME280;60508;42.622;25.416;2023-02-11T08:28:34;98347.38;;;3.39;33.77
45078;BME280;60508;42.622;25.416;2023-02-11T08:31:04;98347.13;;;3.58;33.50
45078;BME280;60508;42.622;25.416;2023-02-11T08:33:31;98352.16;;;3.78;32.81
45078;BME280;60508;42.622;25.416;2023-02-11T08:35:58;98349.41;;;3.88;32.79
45078;BME280;60508;42.622;25.416;2023-02-11T08:38:24;98352.78;;;4.14;32.38
45078;BME280;60508;42.622;25.416;2023-02-11T08:40:50;98339.84;;;4.52;32.06
45078;BME280;60508;42.622;25.416;2023-02-11T08:43:16;98348.03;;;5.40;30.86
45078;BME280;60508;42.622;25.416;2023-02-11T08:45:43;98341.13;;;5.54;29.79
45078;BME280;60508;42.622;25.416;2023-02-11T08:48:09;98328.94;;;6.68;28.85
45078;BME280;60508;42.622;25.416;2023-02-11T08:50:38;98340.94;;;7.25;27.01
45078;BME280;60508;42.622;25.416;2023-02-11T08:53:04;98337.53;;;7.31;27.06
45078;BME280;60508;42.622;25.416;2023-02-11T08:55:30;98329.31;;;8.36;25.49
45078;BME280;60508;42.622;25.416;2023-02-11T08:57:56;98340.22;;;9.06;24.70
45078;BME280;60508;42.622;25.416;2023-02-11T09:00:22;98340.06;;;10.32;23.41
45078;BME280;60508;42.622;25.416;2023-02-11T09:02:48;98330.09;;;11.46;21.89
45078;BME280;60508;42.622;25.416;2023-02-11T09:05:14;98334.31;;;11.87;21.68
45078;BME280;60508;42.622;25.416;2023-02-11T09:07:40;98338.47;;;13.18;19.99
45078;BME280;60508;42.622;25.416;2023-02-11T09:10:07;98323.41;;;15.17;19.08
45078;BME280;60508;42.622;25.416;2023-02-11T09:12:33;98320.69;;;16.63;17.54
45078;BME280;60508;42.622;25.416;2023-02-11T09:14:59;98328.09;;;18.40;16.50
45078;BME280;60508;42.622;25.416;2023-02-11T09:17:24;98316.97;;;20.66;14.91
45078;BME280;60508;42.622;25.416;2023-02-11T09:19:50;98328.50;;;22.05;12.93
45078;BME280;60508;42.622;25.416;2023-02-11T09:22:16;98313.88;;;22.35;12.88
45078;BME280;60508;42.622;25.416;2023-02-11T09:24:42;98307.66;;;23.33;12.37
45078;BME280;60508;42.622;25.416;2023-02-11T09:27:08;98315.47;;;25.45;11.53
45078;BME280;60508;42.622;25.416;2023-02-11T09:29:33;98303.66;;;23.98;11.03
45078;BME280;60508;42.622;25.416;2023-02-11T09:31:59;98297.25;;;25.63;10.54
45078;BME280;60508;42.622;25.416;2023-02-11T09:34:25;98292.38;;;27.51;9.33
45078;BME280;60508;42.622;25.416;2023-02-11T09:36:51;98285.47;;;27.31;9.20
45078;BME280;60508;42.622;25.416;2023-02-11T09:39:18;98280.97;;;27.84;9.27
45078;BME280;60508;42.622;25.416;2023-02-11T09:44:19;98287.66;;;26.02;9.02
45078;BME280;60508;42.622;25.416;2023-02-11T09:46:52;98270.69;;;28.95;8.57
45078;BME280;60508;42.622;25.416;2023-02-11T09:49:24;98276.56;;;30.81;7.38
45078;BME280;60508;42.622;25.416;2023-02-11T09:52:02;98272.91;;;30.26;7.65
45078;BME280;60508;42.622;25.416;2023-02-11T09:54:57;98265.53;;;30.09;7.46
45078;BME280;60508;42.622;25.416;2023-02-11T09:57:24;98256.03;;;30.61;7.54
45078;BME280;60508;42.622;25.416;2023-02-11T09:59:51;98254.16;;;31.07;7.34
45078;BME280;60508;42.622;25.416;2023-02-11T10:08:15;98233.53;;;29.22;7.68
45078;BME280;60508;42.622;25.416;2023-02-11T10:11:02;98238.25;;;30.95;6.86
45078;BME280;60508;42.622;25.416;2023-02-11T10:24:36;98212.44;;;30.62;7.13
45078;BME280;60508;42.622;25.416;2023-02-11T10:27:23;98211.59;;;31.16;6.49
45078;BME280;60508;42.622;25.416;2023-02-11T10:29:56;98203.13;;;29.52;6.96
45078;BME280;60508;42.622;25.416;2023-02-11T10:32:47;98183.34;;;28.50;7.23
45078;BME280;60508;42.622;25.416;2023-02-11T10:35:23;98192.69;;;30.09;6.86
45078;BME280;60508;42.622;25.416;2023-02-11T10:37:49;98181.63;;;29.79;7.01
45078;BME280;60508;42.622;25.416;2023-02-11T10:40:21;98181.06;;;31.77;6.19
45078;BME280;60508;42.622;25.416;2023-02-11T10:42:52;98176.28;;;32.02;5.93
45078;BME280;60508;42.622;25.416;2023-02-11T10:45:34;98167.88;;;31.49;6.13
45078;BME280;60508;42.622;25.416;2023-02-11T10:48:03;98164.19;;;31.58;6.38
45078;BME280;60508;42.622;25.416;2023-02-11T10:50:33;98159.22;;;32.45;6.21
45078;BME280;60508;42.622;25.416;2023-02-11T10:53:20;98154.06;;;33.35;5.50
45078;BME280;60508;42.622;25.416;2023-02-11T10:55:52;98153.91;;;31.99;6.17
45078;BME280;60508;42.622;25.416;2023-02-11T10:58:30;98144.16;;;31.27;5.97
45078;BME280;60508;42.622;25.416;2023-02-11T11:00:58;98137.81;;;30.81;6.68
45078;BME280;60508;42.622;25.416;2023-02-11T11:03:35;98126.84;;;29.84;6.88
45078;BME280;60508;42.622;25.416;2023-02-11T11:06:12;98125.56;;;26.95;7.83
45078;BME280;60508;42.622;25.416;2023-02-11T11:08:42;98128.72;;;30.14;6.67
45078;BME280;60508;42.622;25.416;2023-02-11T11:11:16;98120.97;;;29.56;6.85
45078;BME280;60508;42.622;25.416;2023-02-11T11:16:34;98115.25;;;30.58;6.41
45078;BME280;60508;42.622;25.416;2023-02-11T11:24:18;98111.72;;;33.29;5.27
45078;BME280;60508;42.622;25.416;2023-02-11T11:26:57;98101.16;;;31.87;5.70
45078;BME280;60508;42.622;25.416;2023-02-11T11:29:47;98089.09;;;31.17;5.88
45078;BME280;60508;42.622;25.416;2023-02-11T11:32:31;98103.09;;;30.50;5.93
45078;BME280;60508;42.622;25.416;2023-02-11T11:35:03;98089.59;;;31.47;5.62
45078;BME280;60508;42.622;25.416;2023-02-11T11:37:32;98085.41;;;32.19;5.46
45078;BME280;60508;42.622;25.416;2023-02-11T11:42:38;98064.28;;;30.29;6.15
45078;BME280;60508;42.622;25.416;2023-02-11T11:47:52;98057.34;;;28.88;6.44
45078;BME280;60508;42.622;25.416;2023-02-11T11:55:34;98055.31;;;31.80;5.58
45078;BME280;60508;42.622;25.416;2023-02-11T11:58:03;98053.38;;;34.11;5.07
45078;BME280;60508;42.622;25.416;2023-02-11T12:09:24;98044.78;;;36.79;3.96
45078;BME280;60508;42.622;25.416;2023-02-11T12:12:03;98033.50;;;36.68;4.24
45078;BME280;60508;42.622;25.416;2023-02-11T12:17:58;98030.06;;;34.43;5.17
45078;BME280;60508;42.622;25.416;2023-02-11T12:26:20;98015.16;;;37.30;4.12
45078;BME280;60508;42.622;25.416;2023-02-11T12:43:38;97997.31;;;35.13;4.64
45078;BME280;60508;42.622;25.416;2023-02-11T12:55:15;97991.22;;;36.35;4.24
45078;BME280;60508;42.622;25.416;2023-02-11T12:57:34;97980.47;;;36.41;4.27
45078;BME280;60508;42.622;25.416;2023-02-11T13:00:07;97981.38;;;32.68;4.89
45078;BME280;60508;42.622;25.416;2023-02-11T13:03:21;97974.25;;;34.43;4.79
45078;BME280;60508;42.622;25.416;2023-02-11T13:05:56;97982.00;;;35.29;4.08
45078;BME280;60508;42.622;25.416;2023-02-11T13:08:36;97974.09;;;34.82;4.54
45078;BME280;60508;42.622;25.416;2023-02-11T13:11:07;97966.09;;;34.80;4.51
45078;BME280;60508;42.622;25.416;2023-02-11T13:13:52;97970.19;;;36.11;3.79
45078;BME280;60508;42.622;25.416;2023-02-11T13:16:56;97972.03;;;36.37;3.82
45078;BME280;60508;42.622;25.416;2023-02-11T13:25:02;97960.50;;;33.29;4.56
45078;BME280;60508;42.622;25.416;2023-02-11T13:30:23;97957.56;;;33.22;4.84
45078;BME280;60508;42.622;25.416;2023-02-11T13:38:01;97950.69;;;33.00;4.68
45078;BME280;60508;42.622;25.416;2023-02-11T13:40:32;97948.00;;;31.92;4.99
45078;BME280;60508;42.622;25.416;2023-02-11T13:43:01;97940.63;;;32.44;5.01
45078;BME280;60508;42.622;25.416;2023-02-11T13:45:42;97942.06;;;32.69;4.99
45078;BME280;60508;42.622;25.416;2023-02-11T13:48:30;97943.78;;;33.48;4.67
45078;BME280;60508;42.622;25.416;2023-02-11T13:51:07;97937.53;;;32.81;5.14
45078;BME280;60508;42.622;25.416;2023-02-11T13:53:56;97934.22;;;29.45;6.09
45078;BME280;60508;42.622;25.416;2023-02-11T13:56:32;97927.84;;;29.78;6.13
45078;BME280;60508;42.622;25.416;2023-02-11T13:59:49;97914.91;;;30.28;5.93
45078;BME280;60508;42.622;25.416;2023-02-11T14:05:23;97913.06;;;29.28;6.41
45078;BME280;60508;42.622;25.416;2023-02-11T14:11:06;97904.13;;;26.94;7.32
45078;BME280;60508;42.622;25.416;2023-02-11T14:16:19;97887.47;;;26.42;7.57
45078;BME280;60508;42.622;25.416;2023-02-11T14:21:18;97894.84;;;28.76;6.49
45078;BME280;60508;42.622;25.416;2023-02-11T14:23:45;97889.59;;;26.54;7.00
45078;BME280;60508;42.622;25.416;2023-02-11T14:26:24;97882.56;;;27.05;7.03
45078;BME280;60508;42.622;25.416;2023-02-11T14:38:39;97866.97;;;16.38;12.94
45078;BME280;60508;42.622;25.416;2023-02-11T14:41:24;97874.03;;;14.31;14.07
45078;BME280;60508;42.622;25.416;2023-02-11T14:43:59;97867.25;;;13.64;15.12
45078;BME280;60508;42.622;25.416;2023-02-11T14:46:27;97874.66;;;13.45;14.98
45078;BME280;60508;42.622;25.416;2023-02-11T14:48:59;97870.16;;;13.03;15.45
45078;BME280;60508;42.622;25.416;2023-02-11T14:54:37;97870.13;;;12.00;16.76
45078;BME280;60508;42.622;25.416;2023-02-11T14:57:07;97874.09;;;11.79;16.31
45078;BME280;60508;42.622;25.416;2023-02-11T14:59:34;97859.22;;;11.33;16.38
45078;BME280;60508;42.622;25.416;2023-02-11T15:02:00;97875.38;;;11.33;16.85
45078;BME280;60508;42.622;25.416;2023-02-11T15:06:52;97877.94;;;10.96;16.85
45078;BME280;60508;42.622;25.416;2023-02-11T15:09:21;97874.59;;;10.75;16.99
45078;BME280;60508;42.622;25.416;2023-02-11T15:11:53;97878.69;;;10.53;17.30
45078;BME280;60508;42.622;25.416;2023-02-11T15:14:39;97872.41;;;10.14;17.94
45078;BME280;60508;42.622;25.416;2023-02-11T15:17:07;97868.66;;;10.21;17.52
45078;BME280;60508;42.622;25.416;2023-02-11T15:19:37;97862.97;;;10.04;17.93
45078;BME280;60508;42.622;25.416;2023-02-11T15:22:28;97860.56;;;9.83;17.83
45078;BME280;60508;42.622;25.416;2023-02-11T15:27:26;97859.44;;;10.49;17.36
45078;BME280;60508;42.622;25.416;2023-02-11T15:29:52;97858.94;;;10.66;17.31
45078;BME280;60508;42.622;25.416;2023-02-11T15:32:21;97850.88;;;10.66;17.33
45078;BME280;60508;42.622;25.416;2023-02-11T15:34:50;97857.41;;;10.45;17.39
45078;BME280;60508;42.622;25.416;2023-02-11T15:37:25;97854.56;;;9.87;17.81
45078;BME280;60508;42.622;25.416;2023-02-11T15:39:53;97857.72;;;9.71;17.93
45078;BME280;60508;42.622;25.416;2023-02-11T15:42:28;97855.13;;;9.38;18.34
45078;BME280;60508;42.622;25.416;2023-02-11T15:45:21;97853.50;;;9.10;19.37
45078;BME280;60508;42.622;25.416;2023-02-11T15:47:56;97852.28;;;8.92;20.03
45078;BME280;60508;42.622;25.416;2023-02-11T15:50:29;97842.97;;;8.62;20.03
45078;BME280;60508;42.622;25.416;2023-02-11T15:53:02;97843.59;;;8.57;20.54
45078;BME280;60508;42.622;25.416;2023-02-11T15:55:29;97847.22;;;8.36;21.05
45078;BME280;60508;42.622;25.416;2023-02-11T15:57:59;97854.34;;;8.09;21.81